createdAt,value
2018-11-07T00:02:08.260Z,9.73
2018-11-07T00:04:36.365Z,10.77
2018-11-07T00:07:04.482Z,11.60
2018-11-07T00:09:32.584Z,10.03
2018-11-07T00:12:00.754Z,10.37
2018-11-07T00:14:28.858Z,10.53
2018-11-07T00:16:56.985Z,10.67
2018-11-07T00:19:25.192Z,10.90
2018-11-07T00:21:53.254Z,10.63
2018-11-07T00:24:21.382Z,10.20
2018-11-07T00:26:49.510Z,10.00
2018-11-07T00:29:17.622Z,10.87
2018-11-07T00:31:45.750Z,10.37
2018-11-07T00:34:13.859Z,11.37
2018-11-07T00:36:41.990Z,10.73
2018-11-07T00:39:10.790Z,10.37
2018-11-07T00:41:38.911Z,10.57
2018-11-07T00:44:07.038Z,10.73
2018-11-07T00:46:35.187Z,9.80
2018-11-07T00:49:03.283Z,10.83
2018-11-07T00:51:31.665Z,10.70
2018-11-07T00:53:59.786Z,11.03
2018-11-07T00:56:27.902Z,10.23
2018-11-07T00:58:56.024Z,10.37
2018-11-07T01:01:24.130Z,11.67
2018-11-07T01:03:52.542Z,11.20
2018-11-07T01:06:20.635Z,10.93
2018-11-07T01:08:48.752Z,12.60
2018-11-07T01:11:16.866Z,11.27
2018-11-07T01:13:44.961Z,10.63
2018-11-07T01:16:13.111Z,9.20
2018-11-07T01:18:41.239Z,10.87
2018-11-07T01:21:09.357Z,10.43
2018-11-07T01:23:37.466Z,11.43
2018-11-07T01:26:05.619Z,9.93
2018-11-07T01:28:33.718Z,9.83
2018-11-07T01:31:01.827Z,8.63
2018-11-07T01:33:29.918Z,9.20
2018-11-07T01:35:58.024Z,9.33
2018-11-07T01:38:26.146Z,9.90
2018-11-07T01:40:54.250Z,10.97
2018-11-07T01:43:22.383Z,10.73
2018-11-07T01:45:50.477Z,9.93
2018-11-07T01:48:18.602Z,11.17
2018-11-07T01:50:46.723Z,10.13
2018-11-07T01:53:14.818Z,9.80
2018-11-07T01:55:42.939Z,10.07
2018-11-07T01:58:11.050Z,8.67
2018-11-07T02:00:39.160Z,10.87
2018-11-07T02:03:07.526Z,7.80
2018-11-07T02:05:35.618Z,9.53
2018-11-07T02:08:03.714Z,8.17
2018-11-07T02:10:31.829Z,9.20
2018-11-07T02:12:59.925Z,9.17
2018-11-07T02:15:28.058Z,10.03
2018-11-07T02:17:56.161Z,9.73
2018-11-07T02:20:24.257Z,9.07
2018-11-07T02:22:52.377Z,9.63
2018-11-07T02:25:20.530Z,9.17
2018-11-07T02:27:48.630Z,8.17
2018-11-07T02:30:16.731Z,8.57
2018-11-07T02:32:45.127Z,9.87
2018-11-07T02:35:13.236Z,9.03
2018-11-07T02:37:41.572Z,10.00
2018-11-07T02:40:09.951Z,10.60
2018-11-07T02:42:38.319Z,9.53
2018-11-07T02:45:06.491Z,11.10
2018-11-07T02:47:34.589Z,11.13
2018-11-07T02:50:02.711Z,11.73
2018-11-07T02:52:30.826Z,10.63
2018-11-07T02:54:58.918Z,12.50
2018-11-07T02:57:27.064Z,11.63
2018-11-07T02:59:55.162Z,12.90
2018-11-07T03:02:23.261Z,10.80
2018-11-07T03:04:51.384Z,11.13
2018-11-07T03:07:19.520Z,12.30
2018-11-07T03:09:47.650Z,10.77
2018-11-07T03:12:15.786Z,10.60
2018-11-07T03:14:43.926Z,10.83
2018-11-07T03:17:12.050Z,10.13
2018-11-07T03:19:40.169Z,9.70
2018-11-07T03:22:08.293Z,9.43
2018-11-07T03:24:36.421Z,9.40
2018-11-07T03:27:04.531Z,9.30
2018-11-07T03:29:32.631Z,9.17
2018-11-07T03:32:00.760Z,8.73
2018-11-07T03:34:28.849Z,9.77
2018-11-07T03:36:56.970Z,9.47
2018-11-07T03:39:25.068Z,10.27
2018-11-07T03:41:53.187Z,9.70
2018-11-07T03:44:21.279Z,9.67
2018-11-07T03:46:49.403Z,8.30
2018-11-07T03:49:17.498Z,9.03
2018-11-07T03:51:45.614Z,10.40
2018-11-07T03:54:13.704Z,9.47
2018-11-07T03:56:41.845Z,9.47
2018-11-07T03:59:10.045Z,10.43
2018-11-07T04:01:38.210Z,9.97
2018-11-07T04:04:06.233Z,10.37
2018-11-07T04:06:34.338Z,8.83
2018-11-07T04:09:02.522Z,9.87
2018-11-07T04:11:30.643Z,9.33
2018-11-07T04:13:58.789Z,9.70
2018-11-07T04:16:26.910Z,9.47
2018-11-07T04:18:55.022Z,9.30
2018-11-07T04:21:23.152Z,10.10
2018-11-07T04:23:55.103Z,9.17
2018-11-07T04:26:23.222Z,9.70
2018-11-07T04:28:51.659Z,9.33
2018-11-07T04:31:19.810Z,10.47
2018-11-07T04:33:47.930Z,9.27
2018-11-07T04:36:16.062Z,9.93
2018-11-07T04:38:44.266Z,9.83
2018-11-07T04:41:12.383Z,9.77
2018-11-07T04:43:40.744Z,9.20
2018-11-07T04:46:09.010Z,10.03
2018-11-07T04:48:37.142Z,9.17
2018-11-07T04:51:05.503Z,9.77
2018-11-07T04:53:33.618Z,10.33
2018-11-07T04:56:01.734Z,9.57
2018-11-07T04:58:29.878Z,10.20
2018-11-07T05:00:58.030Z,9.57
2018-11-07T05:03:26.167Z,9.57
2018-11-07T05:05:54.330Z,9.33
2018-11-07T05:08:22.517Z,9.03
2018-11-07T05:10:50.594Z,8.77
2018-11-07T05:13:18.714Z,9.27
2018-11-07T05:15:46.849Z,9.93
2018-11-07T05:18:14.967Z,8.97
2018-11-07T05:20:43.099Z,9.80
2018-11-07T05:23:11.238Z,9.80
2018-11-07T05:25:39.366Z,9.57
2018-11-07T05:28:07.505Z,8.87
2018-11-07T05:30:35.618Z,9.20
2018-11-07T05:33:04.619Z,10.73
2018-11-07T05:35:32.757Z,9.83
2018-11-07T05:38:00.870Z,9.97
2018-11-07T05:40:28.989Z,8.63
2018-11-07T05:42:57.307Z,10.30
2018-11-07T05:45:25.432Z,10.13
2018-11-07T05:47:53.547Z,9.90
2018-11-07T05:50:21.682Z,8.77
2018-11-07T05:52:49.798Z,8.97
2018-11-07T05:55:17.934Z,10.43
2018-11-07T05:57:46.062Z,10.10
2018-11-07T06:00:14.217Z,11.20
2018-11-07T06:02:42.338Z,12.27
2018-11-07T06:05:11.413Z,13.63
2018-11-07T06:07:40.003Z,12.03
2018-11-07T06:10:10.202Z,12.77
2018-11-07T06:12:38.811Z,12.40
2018-11-07T06:15:07.797Z,14.80
2018-11-07T06:17:35.962Z,16.93
2018-11-07T06:20:04.088Z,14.83
2018-11-07T06:22:32.239Z,16.30
2018-11-07T06:25:00.582Z,15.77
2018-11-07T06:27:28.649Z,13.90
2018-11-07T06:29:56.787Z,14.23
2018-11-07T06:32:24.922Z,15.23
2018-11-07T06:34:53.072Z,13.80
2018-11-07T06:37:21.313Z,12.30
2018-11-07T06:39:49.455Z,13.97
2018-11-07T06:42:17.574Z,12.40
2018-11-07T06:44:45.719Z,11.07
2018-11-07T06:47:13.850Z,12.10
2018-11-07T06:49:42.010Z,11.53
2018-11-07T06:52:10.137Z,10.83
2018-11-07T06:54:38.254Z,11.17
2018-11-07T06:57:06.406Z,12.13
2018-11-07T06:59:34.554Z,8.93
2018-11-07T07:02:02.675Z,9.90
2018-11-07T07:04:30.814Z,9.90
2018-11-07T07:06:58.958Z,9.23
2018-11-07T07:09:27.147Z,9.43
2018-11-07T07:11:55.275Z,11.20
2018-11-07T07:14:23.426Z,10.00
2018-11-07T07:16:51.549Z,9.77
2018-11-07T07:19:19.667Z,9.10
2018-11-07T07:21:47.890Z,10.70
2018-11-07T07:24:16.003Z,9.93
2018-11-07T07:26:44.162Z,9.57
2018-11-07T07:29:12.284Z,9.43
2018-11-07T07:31:40.406Z,9.47
2018-11-07T07:34:08.550Z,8.37
2018-11-07T07:36:36.655Z,8.50
2018-11-07T07:39:07.386Z,8.40
2018-11-07T07:41:35.554Z,7.43
2018-11-07T07:44:03.763Z,7.97
2018-11-07T07:46:31.917Z,7.20
2018-11-07T07:49:00.062Z,7.33
2018-11-07T07:51:28.169Z,7.67
2018-11-07T07:53:56.285Z,8.97
2018-11-07T07:56:24.423Z,8.43
2018-11-07T07:58:52.538Z,7.90
2018-11-07T08:01:20.670Z,8.77
2018-11-07T08:03:48.818Z,7.63
2018-11-07T08:06:16.935Z,8.20
2018-11-07T08:08:45.082Z,9.83
2018-11-07T08:11:13.195Z,8.30
2018-11-07T08:13:41.431Z,8.20
2018-11-07T08:16:09.443Z,8.23
2018-11-07T08:18:37.561Z,8.53
2018-11-07T08:21:05.661Z,8.53
2018-11-07T08:23:33.771Z,8.37
2018-11-07T08:26:01.898Z,8.30
2018-11-07T08:28:30.006Z,8.13
2018-11-07T08:30:58.149Z,8.03
2018-11-07T08:33:26.242Z,8.00
2018-11-07T08:35:54.337Z,7.47
2018-11-07T08:38:22.438Z,6.80
2018-11-07T08:40:50.555Z,7.37
2018-11-07T08:43:18.683Z,6.60
2018-11-07T08:45:46.779Z,6.27
2018-11-07T08:48:15.009Z,6.60
2018-11-07T08:50:43.017Z,5.43
2018-11-07T08:53:11.142Z,5.20
2018-11-07T08:55:39.254Z,5.23
2018-11-07T08:58:07.358Z,4.57
2018-11-07T09:00:35.451Z,5.00
2018-11-07T09:03:03.588Z,5.97
2018-11-07T09:05:31.695Z,5.97
2018-11-07T09:07:59.788Z,6.57
2018-11-07T09:10:27.904Z,5.03
2018-11-07T09:12:56.043Z,5.93
2018-11-07T09:15:24.155Z,6.17
2018-11-07T09:17:52.253Z,7.83
2018-11-07T09:20:22.430Z,7.17
2018-11-07T09:22:50.536Z,6.53
2018-11-07T09:25:18.660Z,6.70
2018-11-07T09:27:47.242Z,7.13
2018-11-07T09:30:17.795Z,7.00
2018-11-07T09:32:45.907Z,5.87
2018-11-07T09:35:14.432Z,6.67
2018-11-07T09:37:42.571Z,5.37
2018-11-07T09:40:12.943Z,5.77
2018-11-07T09:42:41.638Z,5.80
2018-11-07T09:45:11.545Z,6.37
2018-11-07T09:47:40.331Z,5.83
2018-11-07T09:50:09.107Z,6.90
2018-11-07T09:52:37.804Z,5.83
2018-11-07T09:55:07.164Z,5.23
2018-11-07T09:57:35.333Z,4.13
2018-11-07T10:00:03.487Z,4.53
2018-11-07T10:02:31.630Z,5.40
2018-11-07T10:04:59.743Z,4.30
2018-11-07T10:07:27.875Z,3.90
2018-11-07T10:09:56.042Z,4.00
2018-11-07T10:12:24.228Z,3.93
2018-11-07T10:14:52.307Z,3.60
2018-11-07T10:17:20.449Z,4.53
2018-11-07T10:19:48.602Z,3.97
2018-11-07T10:22:16.752Z,3.40
2018-11-07T10:24:44.876Z,3.23
2018-11-07T10:27:13.266Z,3.97
2018-11-07T10:29:41.347Z,3.10
2018-11-07T10:32:09.303Z,2.47
2018-11-07T10:34:37.482Z,2.50
2018-11-07T10:37:05.775Z,1.70
2018-11-07T10:39:33.917Z,2.20
2018-11-07T10:42:02.035Z,2.20
2018-11-07T10:44:30.292Z,2.43
2018-11-07T10:46:58.286Z,1.80
2018-11-07T10:49:26.428Z,2.30
2018-11-07T10:51:54.615Z,1.67
2018-11-07T10:54:22.738Z,1.87
2018-11-07T10:56:50.898Z,2.13
2018-11-07T10:59:19.048Z,1.70
2018-11-07T11:01:52.750Z,2.25
2018-11-07T11:04:20.894Z,1.60
2018-11-07T11:06:49.041Z,1.43
2018-11-07T11:09:17.182Z,1.77
2018-11-07T11:11:45.307Z,1.57
2018-11-07T11:14:13.478Z,1.50
2018-11-07T11:16:41.613Z,1.50
2018-11-07T11:19:09.742Z,1.57
2018-11-07T11:21:37.887Z,1.85
2018-11-07T11:24:06.002Z,1.50
2018-11-07T11:26:34.141Z,1.40
2018-11-07T11:29:02.287Z,1.83
2018-11-07T11:31:30.442Z,1.70
2018-11-07T11:33:58.640Z,1.77
2018-11-07T11:36:26.712Z,1.70
2018-11-07T11:38:54.847Z,1.80
2018-11-07T11:41:22.998Z,1.47
2018-11-07T11:43:51.143Z,1.67
2018-11-07T11:46:19.271Z,1.67
2018-11-07T11:48:47.415Z,1.70
2018-11-07T11:51:15.600Z,1.45
2018-11-07T11:53:43.690Z,1.37
2018-11-07T11:56:11.844Z,1.40
2018-11-07T11:58:39.996Z,1.70
2018-11-07T12:01:08.335Z,1.57
2018-11-07T12:03:36.530Z,1.95
2018-11-07T12:06:05.006Z,1.50
2018-11-07T12:08:33.223Z,1.67
2018-11-07T12:11:02.023Z,1.52
2018-11-07T12:13:30.219Z,1.60
2018-11-07T12:15:58.230Z,1.60
2018-11-07T12:18:26.355Z,1.80
2018-11-07T12:20:54.458Z,1.32
2018-11-07T12:23:22.548Z,1.62
2018-11-07T12:25:50.686Z,1.82
2018-11-07T12:28:18.783Z,1.42
2018-11-07T12:30:46.888Z,1.60
2018-11-07T12:33:15.011Z,1.40
2018-11-07T12:35:43.175Z,1.35
2018-11-07T12:38:11.279Z,1.35
2018-11-07T12:40:39.421Z,1.50
2018-11-07T12:43:07.549Z,1.70
2018-11-07T12:45:35.816Z,1.32
2018-11-07T12:48:04.001Z,1.52
2018-11-07T12:50:32.145Z,1.27
2018-11-07T12:53:00.219Z,1.20
2018-11-07T12:55:28.340Z,1.00
2018-11-07T12:57:56.536Z,1.42
2018-11-07T13:00:25.842Z,0.93
2018-11-07T13:02:53.986Z,1.50
2018-11-07T13:05:23.010Z,1.00
2018-11-07T13:07:51.799Z,1.12
2018-11-07T13:10:20.901Z,1.35
2018-11-07T13:12:49.667Z,1.60
2018-11-07T13:15:18.038Z,1.37
2018-11-07T13:17:46.905Z,1.62
2018-11-07T13:20:17.164Z,1.42
2018-11-07T13:22:46.555Z,1.22
2018-11-07T13:25:15.366Z,1.42
2018-11-07T13:27:43.489Z,1.27
2018-11-07T13:30:13.736Z,1.37
2018-11-07T13:32:41.867Z,1.77
2018-11-07T13:35:10.926Z,1.40
2018-11-07T13:37:40.084Z,1.50
2018-11-07T13:40:10.540Z,2.15
2018-11-07T13:42:38.707Z,1.72
2018-11-07T13:45:08.643Z,2.60
2018-11-07T13:47:36.835Z,1.82
2018-11-07T13:50:05.219Z,1.32
2018-11-07T13:52:33.379Z,4.42
2018-11-07T13:55:02.070Z,1.42
2018-11-07T13:57:30.216Z,2.00
2018-11-07T13:59:58.372Z,1.80
2018-11-07T14:02:26.573Z,1.30
2018-11-07T14:04:54.698Z,1.35
2018-11-07T14:07:22.852Z,1.45
2018-11-07T14:09:50.960Z,1.30
2018-11-07T14:12:19.111Z,1.57
2018-11-07T14:14:47.272Z,1.47
2018-11-07T14:17:15.444Z,1.60
2018-11-07T14:19:43.611Z,10.45
2018-11-07T14:22:11.731Z,5.97
2018-11-07T14:24:40.198Z,3.83
2018-11-07T14:27:08.348Z,2.20
2018-11-07T14:29:36.499Z,2.20
2018-11-07T14:32:04.659Z,2.67
2018-11-07T14:34:33.150Z,1.80
2018-11-07T14:37:01.287Z,2.37
2018-11-07T14:39:29.439Z,2.20
2018-11-07T14:41:57.558Z,2.12
2018-11-07T14:44:25.703Z,4.55
2018-11-07T14:46:53.879Z,3.62
2018-11-07T14:49:21.962Z,3.40
2018-11-07T14:51:50.117Z,3.30
2018-11-07T14:54:18.264Z,3.83
2018-11-07T14:56:46.457Z,3.00
2018-11-07T14:59:14.594Z,4.03
2018-11-07T15:01:42.743Z,2.45
2018-11-07T15:04:10.877Z,2.03
2018-11-07T15:06:39.023Z,1.70
2018-11-07T15:09:08.483Z,1.70
2018-11-07T15:11:36.696Z,3.60
2018-11-07T15:14:04.971Z,3.73
2018-11-07T15:16:33.178Z,5.07
2018-11-07T15:19:01.367Z,6.63
2018-11-07T15:21:29.510Z,5.03
2018-11-07T15:23:57.694Z,23.63
2018-11-07T15:26:25.824Z,18.70
2018-11-07T15:28:54.002Z,13.17
2018-11-07T15:31:22.114Z,6.77
2018-11-07T15:33:50.243Z,6.27
2018-11-07T15:36:18.543Z,4.77
2018-11-07T15:38:46.598Z,4.50
2018-11-07T15:41:14.725Z,4.30
2018-11-07T15:43:42.883Z,4.03
2018-11-07T15:46:11.047Z,4.00
2018-11-07T15:48:39.205Z,4.00
2018-11-07T15:51:14.592Z,3.43
2018-11-07T15:53:43.258Z,3.50
2018-11-07T15:56:11.414Z,3.40
2018-11-07T15:58:39.527Z,3.10
2018-11-07T16:01:07.675Z,2.87
2018-11-07T16:03:41.193Z,2.47
2018-11-07T16:06:09.371Z,2.60
2018-11-07T16:08:37.447Z,2.50
2018-11-07T16:11:05.594Z,2.53
2018-11-07T16:13:33.769Z,3.30
2018-11-07T16:16:01.927Z,3.20
2018-11-07T16:18:30.043Z,3.37
2018-11-07T16:20:58.186Z,2.93
2018-11-07T16:23:26.361Z,2.70
2018-11-07T16:25:54.509Z,2.43
2018-11-07T16:28:22.586Z,2.10
2018-11-07T16:30:50.726Z,3.10
2018-11-07T16:33:18.843Z,2.90
2018-11-07T16:35:46.971Z,2.90
2018-11-07T16:38:15.112Z,2.37
2018-11-07T16:40:43.310Z,3.10
2018-11-07T16:43:11.418Z,2.53
2018-11-07T16:45:39.515Z,2.40
2018-11-07T16:48:07.643Z,2.83
2018-11-07T16:50:35.848Z,2.77
2018-11-07T16:53:04.305Z,2.73
2018-11-07T16:55:32.395Z,2.40
2018-11-07T16:58:00.519Z,2.30
2018-11-07T17:00:28.611Z,2.70
2018-11-07T17:02:56.726Z,2.87
2018-11-07T17:05:24.841Z,2.67
2018-11-07T17:07:52.926Z,2.67
2018-11-07T17:10:21.046Z,2.30
2018-11-07T17:12:49.186Z,2.90
2018-11-07T17:15:17.323Z,3.03
2018-11-07T17:17:45.453Z,3.67
2018-11-07T17:20:14.690Z,3.73
2018-11-07T17:22:43.043Z,3.43
2018-11-07T17:25:14.358Z,4.57
2018-11-07T17:27:42.634Z,4.20
2018-11-07T17:30:11.863Z,5.00
2018-11-07T17:32:39.987Z,3.40
2018-11-07T17:35:09.956Z,3.73
2018-11-07T17:37:38.096Z,4.73
2018-11-07T17:40:10.559Z,3.67
2018-11-07T17:42:38.715Z,3.40
2018-11-07T17:45:09.335Z,3.43
2018-11-07T17:47:37.665Z,4.37
2018-11-07T17:50:06.633Z,3.60
2018-11-07T17:52:34.814Z,3.70
2018-11-07T17:55:02.940Z,5.30
2018-11-07T17:57:31.054Z,3.30
2018-11-07T17:59:59.231Z,5.00
2018-11-07T18:02:27.375Z,4.60
2018-11-07T18:04:55.490Z,4.40
2018-11-07T18:07:23.626Z,4.17
2018-11-07T18:09:51.805Z,4.73
2018-11-07T18:12:19.878Z,4.13
2018-11-07T18:14:48.014Z,5.30
2018-11-07T18:17:16.150Z,5.93
2018-11-07T18:19:44.306Z,6.90
2018-11-07T18:22:12.438Z,4.80
2018-11-07T18:24:40.574Z,6.60
2018-11-07T18:27:08.736Z,7.13
2018-11-07T18:29:36.871Z,6.70
2018-11-07T18:32:05.169Z,8.33
2018-11-07T18:34:35.623Z,9.60
2018-11-07T18:37:04.014Z,6.47
2018-11-07T18:39:32.310Z,4.97
2018-11-07T18:42:00.446Z,4.80
2018-11-07T18:44:28.736Z,6.60
2018-11-07T18:46:56.692Z,7.50
2018-11-07T18:49:24.762Z,6.73
2018-11-07T18:51:52.896Z,6.00
2018-11-07T18:54:20.998Z,6.03
2018-11-07T18:56:49.094Z,7.17
2018-11-07T18:59:17.374Z,7.60
2018-11-07T19:01:45.838Z,8.87
2018-11-07T19:04:14.237Z,6.87
2018-11-07T19:06:42.571Z,5.80
2018-11-07T19:09:10.647Z,5.40
2018-11-07T19:11:38.762Z,6.47
2018-11-07T19:14:07.091Z,5.80
2018-11-07T19:16:35.239Z,6.93
2018-11-07T19:19:03.368Z,5.73
2018-11-07T19:21:31.738Z,6.50
2018-11-07T19:23:59.876Z,6.67
2018-11-07T19:26:27.964Z,6.20
2018-11-07T19:28:56.038Z,4.77
2018-11-07T19:31:24.162Z,6.23
2018-11-07T19:33:52.306Z,4.87
2018-11-07T19:36:20.443Z,5.50
2018-11-07T19:38:48.531Z,5.60
2018-11-07T19:41:16.683Z,5.67
2018-11-07T19:43:45.078Z,6.50
2018-11-07T19:46:13.206Z,5.67
2018-11-07T19:48:41.335Z,5.30
2018-11-07T19:51:09.478Z,5.10
2018-11-07T19:53:37.641Z,5.57
2018-11-07T19:56:06.066Z,5.60
2018-11-07T19:58:34.214Z,6.20
2018-11-07T20:01:02.347Z,7.07
2018-11-07T20:03:30.694Z,4.10
2018-11-07T20:05:58.915Z,6.50
2018-11-07T20:08:27.239Z,5.63
2018-11-07T20:10:55.391Z,6.60
2018-11-07T20:13:23.526Z,6.03
2018-11-07T20:15:51.750Z,5.43
2018-11-07T20:18:19.920Z,4.93
2018-11-07T20:20:48.038Z,5.67
2018-11-07T20:23:16.221Z,4.70
2018-11-07T20:25:44.312Z,4.97
2018-11-07T20:28:12.461Z,6.07
2018-11-07T20:30:40.563Z,5.70
2018-11-07T20:33:08.662Z,7.03
2018-11-07T20:35:36.842Z,7.80
2018-11-07T20:38:05.178Z,7.90
2018-11-07T20:40:33.256Z,5.00
2018-11-07T20:43:01.380Z,7.90
2018-11-07T20:45:29.482Z,7.63
2018-11-07T20:47:57.582Z,6.83
2018-11-07T20:50:25.774Z,6.50
2018-11-07T20:52:53.893Z,5.57
2018-11-07T20:55:21.991Z,6.20
2018-11-07T20:57:50.110Z,7.93
2018-11-07T21:00:19.785Z,6.50
2018-11-07T21:02:48.071Z,6.30
2018-11-07T21:05:16.170Z,7.70
2018-11-07T21:07:44.302Z,7.10
2018-11-07T21:10:14.450Z,7.13
2018-11-07T21:12:42.946Z,7.67
2018-11-07T21:15:12.189Z,8.53
2018-11-07T21:17:41.090Z,6.33
2018-11-07T21:20:09.262Z,10.20
2018-11-07T21:22:37.558Z,8.13
2018-11-07T21:25:05.932Z,6.73
2018-11-07T21:27:34.029Z,8.30
2018-11-07T21:30:02.530Z,8.70
2018-11-07T21:32:30.647Z,8.67
2018-11-07T21:34:58.777Z,7.67
2018-11-07T21:37:26.878Z,7.50
2018-11-07T21:39:54.975Z,8.27
2018-11-07T21:42:23.126Z,7.40
2018-11-07T21:44:51.241Z,7.90
2018-11-07T21:47:19.578Z,7.87
2018-11-07T21:49:47.723Z,7.73
2018-11-07T21:52:15.845Z,6.80
2018-11-07T21:54:43.937Z,6.53
2018-11-07T21:57:12.021Z,5.90
2018-11-07T21:59:40.174Z,6.83
2018-11-07T22:02:08.281Z,7.97
2018-11-07T22:04:36.382Z,6.60
2018-11-07T22:07:04.743Z,7.80
2018-11-07T22:09:32.837Z,6.10
2018-11-07T22:12:00.972Z,7.63
2018-11-07T22:14:29.139Z,6.97
2018-11-07T22:16:57.238Z,7.07
2018-11-07T22:19:42.334Z,7.30
2018-11-07T22:22:10.480Z,6.13
2018-11-07T22:24:38.528Z,5.10
2018-11-07T22:27:07.155Z,5.27
2018-11-07T22:29:35.249Z,6.60
2018-11-07T22:32:03.343Z,6.47
2018-11-07T22:34:31.478Z,5.83
2018-11-07T22:36:59.571Z,5.20
2018-11-07T22:39:27.667Z,5.37
2018-11-07T22:41:55.787Z,5.93
2018-11-07T22:44:23.920Z,5.10
2018-11-07T22:46:52.034Z,6.37
2018-11-07T22:49:20.162Z,5.57
2018-11-07T22:51:48.322Z,5.23
2018-11-07T22:54:16.442Z,5.47
2018-11-07T22:56:44.592Z,5.07
2018-11-07T22:59:12.711Z,4.73
2018-11-07T23:01:41.640Z,5.10
2018-11-07T23:04:10.174Z,5.40
2018-11-07T23:06:39.076Z,5.40
2018-11-07T23:09:09.756Z,5.13
2018-11-07T23:11:41.883Z,4.70
2018-11-07T23:14:11.567Z,5.17
2018-11-07T23:16:39.927Z,5.17
2018-11-07T23:19:08.068Z,5.53
2018-11-07T23:21:36.234Z,4.93
2018-11-07T23:24:04.691Z,5.93
2018-11-07T23:26:32.911Z,4.73
2018-11-07T23:29:01.428Z,5.93
2018-11-07T23:31:29.803Z,5.20
2018-11-07T23:33:58.028Z,5.93
2018-11-07T23:36:26.205Z,5.23
2018-11-07T23:38:54.326Z,5.33
2018-11-07T23:41:22.439Z,4.40
2018-11-07T23:43:50.591Z,5.47
2018-11-07T23:46:18.798Z,5.50
2018-11-07T23:48:46.940Z,5.23
2018-11-07T23:51:15.095Z,5.20
2018-11-07T23:53:43.235Z,4.57
2018-11-07T23:56:11.351Z,5.00
2018-11-07T23:58:39.478Z,5.40
